Time,TemperatureF,DewpointF,PressureIn,WindDirection,WindDirectionDegrees,WindSpeedMPH,WindSpeedGustMPH,Humidity,HourlyPrecipIn,Conditions,Clouds,dailyrainin,SoftwareType,DateUTC
2013-05-19 00:00:00,66.8,61.5,29.73,SE,146,0.0,0.0,83,0.00,,---,2.73,VWS V14.01,2013-05-19 05:00:00,
2013-05-19 00:01:00,66.8,61.5,29.73,SE,146,0.0,0.0,83,0.00,,---,2.73,VWS V14.01,2013-05-19 05:01:00,
2013-05-19 00:06:00,66.8,61.5,29.73,SE,146,0.0,0.0,83,0.00,,---,0.00,VWS V14.01,2013-05-19 05:06:00,
2013-05-19 00:11:00,66.7,61.4,29.73,SE,146,0.0,0.0,83,0.00,,---,0.00,VWS V14.01,2013-05-19 05:11:00,
2013-05-19 00:16:00,66.5,61.2,29.73,SE,146,0.0,0.0,83,0.00,,---,0.00,VWS V14.01,2013-05-19 05:16:00,
2013-05-19 00:21:00,66.3,61.0,29.73,SE,146,0.0,0.0,83,0.00,,---,0.00,VWS V14.01,2013-05-19 05:21:00,
2013-05-19 00:26:00,66.1,60.8,29.73,SE,146,0.0,1.0,83,0.00,,---,0.00,VWS V14.01,2013-05-19 05:26:00,
2013-05-19 00:30:00,65.9,60.9,29.72,SE,146,0.0,1.0,84,0.00,,---,0.00,VWS V14.01,2013-05-19 05:30:00,
2013-05-19 00:31:00,65.9,60.9,29.72,SE,146,0.0,1.0,84,0.00,,---,0.00,VWS V14.01,2013-05-19 05:31:00,
2013-05-19 00:36:00,65.8,60.8,29.72,SE,146,0.0,0.0,84,0.00,,---,0.00,VWS V14.01,2013-05-19 05:36:00,
2013-05-19 00:41:00,65.7,60.4,29.72,SE,146,0.0,0.0,83,0.00,,---,0.00,VWS V14.01,2013-05-19 05:41:00,
2013-05-19 00:46:00,65.4,60.5,29.72,SE,146,0.0,0.0,84,0.00,,---,0.00,VWS V14.01,2013-05-19 05:46:00,
2013-05-19 00:51:00,65.3,60.3,29.72,SE,146,0.0,1.0,84,0.00,,---,0.00,VWS V14.01,2013-05-19 05:51:00,
2013-05-19 00:56:00,65.3,60.3,29.72,SE,146,0.0,1.0,84,0.00,,---,0.00,VWS V14.01,2013-05-19 05:56:00,
2013-05-19 01:00:00,65.3,60.3,29.72,SE,146,0.0,1.0,84,0.00,,---,0.00,VWS V14.01,2013-05-19 06:00:00,
2013-05-19 01:01:00,65.3,60.3,29.72,SE,146,0.0,1.0,84,0.00,,---,0.00,VWS V14.01,2013-05-19 06:01:00,
2013-05-19 01:06:00,65.3,60.3,29.72,SE,146,0.0,0.0,84,0.00,,---,0.00,VWS V14.01,2013-05-19 06:06:00,
2013-05-19 01:11:00,65.2,60.2,29.72,SE,146,0.0,0.0,84,0.00,,---,0.00,VWS V14.01,2013-05-19 06:11:00,
2013-05-19 01:16:00,65.1,60.5,29.71,SE,146,0.0,0.0,85,0.00,,---,0.00,VWS V14.01,2013-05-19 06:16:00,
2013-05-19 01:21:00,65.1,60.5,29.71,SE,146,0.0,1.0,85,0.00,,---,0.00,VWS V14.01,2013-05-19 06:21:00,
2013-05-19 01:26:00,65.1,60.5,29.70,SE,146,0.0,1.0,85,0.00,,---,0.00,VWS V14.01,2013-05-19 06:26:00,
2013-05-19 01:30:00,65.2,60.6,29.70,SE,146,0.0,1.0,85,0.00,,---,0.00,VWS V14.01,2013-05-19 06:30:00,
2013-05-19 01:31:00,65.2,60.6,29.70,SE,146,0.0,1.0,85,0.00,,---,0.00,VWS V14.01,2013-05-19 06:31:00,
2013-05-19 01:36:00,65.2,60.6,29.71,SE,146,0.0,0.0,85,0.00,,---,0.00,VWS V14.01,2013-05-19 06:36:00,
2013-05-19 01:41:00,65.1,60.5,29.71,SE,146,0.0,0.0,85,0.00,,---,0.00,VWS V14.01,2013-05-19 06:41:00,
2013-05-19 01:46:00,65.0,60.4,29.72,SE,146,0.0,0.0,85,0.00,,---,0.00,VWS V14.01,2013-05-19 06:46:00,
2013-05-19 01:51:00,64.8,60.2,29.72,SE,146,0.0,0.0,85,0.00,,---,0.00,VWS V14.01,2013-05-19 06:51:00,
2013-05-19 01:56:00,64.6,60.3,29.72,SE,146,0.0,0.0,86,0.00,,---,0.00,VWS V14.01,2013-05-19 06:56:00,
2013-05-19 02:00:00,64.4,60.1,29.71,SE,146,0.0,0.0,86,0.00,,---,0.00,VWS V14.01,2013-05-19 07:00:00,
2013-05-19 02:01:00,64.4,60.1,29.71,SE,146,0.0,0.0,86,0.00,,---,0.00,VWS V14.01,2013-05-19 07:01:00,
2013-05-19 02:06:00,64.3,60.0,29.72,SE,146,0.0,0.0,86,0.00,,---,0.00,VWS V14.01,2013-05-19 07:06:00,
2013-05-19 02:11:00,64.0,59.7,29.72,SE,146,0.0,0.0,86,0.00,,---,0.00,VWS V14.01,2013-05-19 07:11:00,
2013-05-19 02:16:00,63.8,59.5,29.73,SE,146,0.0,0.0,86,0.00,,---,0.00,VWS V14.01,2013-05-19 07:16:00,
2013-05-19 02:21:00,63.5,59.6,29.73,SE,146,0.0,0.0,87,0.00,,---,0.00,VWS V14.01,2013-05-19 07:21:00,
2013-05-19 02:26:00,63.5,59.6,29.72,SE,146,0.0,0.0,87,0.00,,---,0.00,VWS V14.01,2013-05-19 07:26:00,
2013-05-19 02:30:00,63.4,59.5,29.72,SE,146,0.0,0.0,87,0.00,,---,0.00,VWS V14.01,2013-05-19 07:30:00,
2013-05-19 02:31:00,63.4,59.5,29.72,SE,146,0.0,0.0,87,0.00,,---,0.00,VWS V14.01,2013-05-19 07:31:00,
2013-05-19 02:36:00,63.3,59.4,29.72,SE,146,0.0,0.0,87,0.00,,---,0.00,VWS V14.01,2013-05-19 07:36:00,
2013-05-19 02:41:00,63.2,59.6,29.72,SE,146,0.0,0.0,88,0.00,,---,0.00,VWS V14.01,2013-05-19 07:41:00,
2013-05-19 02:46:00,63.1,59.2,29.72,SE,146,0.0,0.0,87,0.00,,---,0.00,VWS V14.01,2013-05-19 07:46:00,
2013-05-19 02:51:00,62.8,58.9,29.72,SE,146,0.0,0.0,87,0.00,,---,0.00,VWS V14.01,2013-05-19 07:51:00,
2013-05-19 02:56:00,62.4,58.5,29.72,SE,146,0.0,0.0,87,0.00,,---,0.00,VWS V14.01,2013-05-19 07:56:00,
2013-05-19 03:00:00,62.0,57.8,29.73,SE,146,0.0,0.0,86,0.00,,---,0.00,VWS V14.01,2013-05-19 08:00:00,
2013-05-19 03:01:00,62.0,57.8,29.73,SE,146,0.0,0.0,86,0.00,,---,0.00,VWS V14.01,2013-05-19 08:01:00,
2013-05-19 03:06:00,61.5,57.3,29.72,SE,146,0.0,1.0,86,0.00,,---,0.00,VWS V14.01,2013-05-19 08:06:00,
2013-05-19 03:11:00,61.1,56.9,29.72,SE,146,0.0,1.0,86,0.00,,---,0.00,VWS V14.01,2013-05-19 08:11:00,
2013-05-19 03:16:00,60.7,56.5,29.72,SE,146,0.0,1.0,86,0.00,,---,0.00,VWS V14.01,2013-05-19 08:16:00,
2013-05-19 03:21:00,60.3,56.4,29.72,SE,146,0.0,1.0,87,0.00,,---,0.00,VWS V14.01,2013-05-19 08:21:00,
2013-05-19 03:26:00,60.1,56.2,29.72,SE,146,0.0,1.0,87,0.00,,---,0.00,VWS V14.01,2013-05-19 08:26:00,
2013-05-19 03:30:00,60.0,56.1,29.72,SE,146,0.0,1.0,87,0.00,,---,0.00,VWS V14.01,2013-05-19 08:30:00,
2013-05-19 03:31:00,60.0,56.1,29.72,SE,146,0.0,1.0,87,0.00,,---,0.00,VWS V14.01,2013-05-19 08:31:00,
2013-05-19 03:36:00,59.9,56.0,29.72,SE,146,0.0,0.0,87,0.00,,---,0.00,VWS V14.01,2013-05-19 08:36:00,
2013-05-19 03:41:00,59.7,55.8,29.72,SE,146,0.0,0.0,87,0.00,,---,0.00,VWS V14.01,2013-05-19 08:41:00,
2013-05-19 03:46:00,59.5,56.0,29.73,SE,146,0.0,0.0,88,0.00,,---,0.00,VWS V14.01,2013-05-19 08:46:00,
2013-05-19 03:51:00,59.5,56.0,29.72,SE,146,0.0,0.0,88,0.00,,---,0.00,VWS V14.01,2013-05-19 08:51:00,
2013-05-19 03:56:00,59.4,55.8,29.72,SE,146,0.0,0.0,88,0.00,,---,0.00,VWS V14.01,2013-05-19 08:56:00,
2013-05-19 04:00:00,59.6,56.4,29.71,SE,146,0.0,0.0,89,0.00,,---,0.00,VWS V14.01,2013-05-19 09:00:00,
2013-05-19 04:01:00,59.6,56.4,29.71,SE,146,0.0,0.0,89,0.00,,---,0.00,VWS V14.01,2013-05-19 09:01:00,
2013-05-19 04:06:00,59.8,56.6,29.71,SE,146,0.0,0.0,89,0.00,,---,0.00,VWS V14.01,2013-05-19 09:06:00,
2013-05-19 04:11:00,59.9,56.7,29.71,SE,146,0.0,0.0,89,0.00,,---,0.00,VWS V14.01,2013-05-19 09:11:00,
2013-05-19 04:16:00,60.1,56.8,29.70,SE,146,0.0,0.0,89,0.00,,---,0.00,VWS V14.01,2013-05-19 09:16:00,
2013-05-19 04:21:00,60.2,57.0,29.69,SE,146,0.0,0.0,89,0.00,,---,0.00,VWS V14.01,2013-05-19 09:21:00,
2013-05-19 04:26:00,60.3,57.0,29.69,SE,146,0.0,0.0,89,0.00,,---,0.00,VWS V14.01,2013-05-19 09:26:00,
2013-05-19 04:30:00,60.4,57.2,29.69,SE,146,0.0,0.0,89,0.00,,---,0.00,VWS V14.01,2013-05-19 09:30:00,
2013-05-19 04:31:00,60.4,57.2,29.69,SE,146,0.0,0.0,89,0.00,,---,0.00,VWS V14.01,2013-05-19 09:31:00,
2013-05-19 04:36:00,60.4,57.2,29.69,SE,146,0.0,0.0,89,0.00,,---,0.00,VWS V14.01,2013-05-19 09:36:00,
2013-05-19 04:41:00,60.5,57.2,29.68,SE,146,0.0,0.0,89,0.00,,---,0.00,VWS V14.01,2013-05-19 09:41:00,
2013-05-19 04:46:00,60.6,57.3,29.68,SE,146,0.0,1.0,89,0.00,,---,0.00,VWS V14.01,2013-05-19 09:46:00,
2013-05-19 04:51:00,60.7,57.1,29.67,SE,146,0.0,1.0,88,0.00,,---,0.00,VWS V14.01,2013-05-19 09:51:00,
2013-05-19 04:56:00,60.8,57.5,29.67,SE,146,0.0,1.0,89,0.00,,---,0.00,VWS V14.01,2013-05-19 09:56:00,
2013-05-19 05:00:00,60.9,57.6,29.67,SE,146,0.0,1.0,89,0.00,,---,0.00,VWS V14.01,2013-05-19 10:00:00,
2013-05-19 05:01:00,60.9,57.6,29.67,SE,146,0.0,1.0,89,0.00,,---,0.00,VWS V14.01,2013-05-19 10:01:00,
2013-05-19 05:06:00,60.9,57.6,29.67,SE,146,0.0,0.0,89,0.00,,---,0.00,VWS V14.01,2013-05-19 10:06:00,
2013-05-19 05:11:00,60.8,57.5,29.67,SE,146,0.0,0.0,89,0.00,,---,0.00,VWS V14.01,2013-05-19 10:11:00,
2013-05-19 05:16:00,60.8,57.5,29.67,SE,146,0.0,0.0,89,0.00,,---,0.00,VWS V14.01,2013-05-19 10:16:00,
2013-05-19 05:21:00,60.9,57.6,29.67,SE,146,0.0,0.0,89,0.00,,---,0.00,VWS V14.01,2013-05-19 10:21:00,
2013-05-19 05:26:00,61.1,57.8,29.67,SE,146,0.0,0.0,89,0.00,,---,0.00,VWS V14.01,2013-05-19 10:26:00,
2013-05-19 05:30:00,61.1,57.8,29.67,SE,146,0.0,0.0,89,0.00,,---,0.00,VWS V14.01,2013-05-19 10:30:00,
2013-05-19 05:31:00,61.1,57.8,29.67,SE,146,0.0,0.0,89,0.00,,---,0.00,VWS V14.01,2013-05-19 10:31:00,
2013-05-19 05:36:00,61.0,57.7,29.67,SE,146,0.0,0.0,89,0.00,,---,0.00,VWS V14.01,2013-05-19 10:36:00,
2013-05-19 05:41:00,61.2,57.9,29.67,SE,146,0.0,0.0,89,0.00,,---,0.00,VWS V14.01,2013-05-19 10:41:00,
2013-05-19 05:46:00,61.3,58.3,29.67,SE,146,0.0,0.0,90,0.00,,---,0.00,VWS V14.01,2013-05-19 10:46:00,
2013-05-19 05:51:00,61.4,58.1,29.67,SE,146,0.0,0.0,89,0.00,,---,0.00,VWS V14.01,2013-05-19 10:51:00,
2013-05-19 05:56:00,61.4,58.1,29.67,SE,146,0.0,0.0,89,0.00,,---,0.00,VWS V14.01,2013-05-19 10:56:00,
2013-05-19 06:00:00,61.5,58.5,29.67,SE,146,0.0,0.0,90,0.00,,---,0.00,VWS V14.01,2013-05-19 11:00:00,
2013-05-19 06:01:00,61.5,58.5,29.67,SE,146,0.0,0.0,90,0.00,,---,0.00,VWS V14.01,2013-05-19 11:01:00,
2013-05-19 06:06:00,61.7,58.7,29.67,SE,146,0.0,0.0,90,0.00,,---,0.00,VWS V14.01,2013-05-19 11:06:00,
2013-05-19 06:11:00,61.9,58.9,29.67,SE,146,0.0,0.0,90,0.00,,---,0.00,VWS V14.01,2013-05-19 11:11:00,
2013-05-19 06:16:00,62.0,59.0,29.67,SE,146,0.0,0.0,90,0.00,,---,0.00,VWS V14.01,2013-05-19 11:16:00,
2013-05-19 06:21:00,61.9,58.9,29.68,SE,146,0.0,0.0,90,0.00,,---,0.00,VWS V14.01,2013-05-19 11:21:00,
2013-05-19 06:26:00,61.9,58.9,29.68,SE,146,0.0,0.0,90,0.00,,---,0.00,VWS V14.01,2013-05-19 11:26:00,
2013-05-19 06:30:00,61.9,58.9,29.68,SE,146,0.0,0.0,90,0.00,,---,0.00,VWS V14.01,2013-05-19 11:30:00,
2013-05-19 06:31:00,61.9,58.9,29.68,SE,146,0.0,0.0,90,0.00,,---,0.00,VWS V14.01,2013-05-19 11:31:00,
2013-05-19 06:36:00,62.0,59.0,29.68,SE,146,0.0,0.0,90,0.00,,---,0.00,VWS V14.01,2013-05-19 11:36:00,
2013-05-19 06:41:00,62.3,59.3,29.68,SE,146,0.0,0.0,90,0.00,,---,0.00,VWS V14.01,2013-05-19 11:41:00,
2013-05-19 06:46:00,62.3,59.3,29.67,SE,146,0.0,0.0,90,0.01,,---,0.01,VWS V14.01,2013-05-19 11:46:00,
2013-05-19 06:51:00,62.3,59.3,29.67,SE,146,0.0,0.0,90,0.01,,---,0.01,VWS V14.01,2013-05-19 11:51:00,
2013-05-19 06:56:00,62.2,59.2,29.68,SE,146,0.0,0.0,90,0.02,,---,0.02,VWS V14.01,2013-05-19 11:56:00,
2013-05-19 07:00:00,62.3,59.3,29.68,SE,146,0.0,0.0,90,0.02,,---,0.02,VWS V14.01,2013-05-19 12:00:00,
2013-05-19 07:01:00,62.3,59.3,29.68,SE,146,0.0,0.0,90,0.02,,---,0.02,VWS V14.01,2013-05-19 12:01:00,
2013-05-19 07:06:00,62.4,59.4,29.68,SE,146,0.0,0.0,90,0.02,,---,0.02,VWS V14.01,2013-05-19 12:06:00,
2013-05-19 07:11:00,62.5,59.5,29.68,SE,146,0.0,0.0,90,0.02,,---,0.02,VWS V14.01,2013-05-19 12:11:00,
2013-05-19 07:16:00,62.6,59.6,29.68,SE,146,0.0,0.0,90,0.02,,---,0.02,VWS V14.01,2013-05-19 12:16:00,
2013-05-19 07:21:00,62.7,59.7,29.67,SE,146,0.0,0.0,90,0.02,,---,0.02,VWS V14.01,2013-05-19 12:21:00,
2013-05-19 07:26:00,62.8,59.8,29.67,SE,146,0.0,0.0,90,0.03,,---,0.03,VWS V14.01,2013-05-19 12:26:00,
2013-05-19 07:30:00,62.9,59.9,29.68,SE,146,0.0,0.0,90,0.04,,---,0.04,VWS V14.01,2013-05-19 12:30:00,
2013-05-19 07:31:00,62.9,59.9,29.68,SE,146,0.0,0.0,90,0.03,,---,0.03,VWS V14.01,2013-05-19 12:31:00,
2013-05-19 07:36:00,62.9,59.9,29.68,SE,146,0.0,0.0,90,0.04,,---,0.04,VWS V14.01,2013-05-19 12:36:00,
2013-05-19 07:41:00,62.9,59.9,29.68,SE,146,0.0,1.0,90,0.06,,---,0.06,VWS V14.01,2013-05-19 12:41:00,
2013-05-19 07:46:00,62.9,59.9,29.67,ESE,121,0.0,2.0,90,0.08,,---,0.08,VWS V14.01,2013-05-19 12:46:00,
2013-05-19 07:50:00,62.9,59.9,29.67,SE,146,5.0,5.0,90,0.10,,---,0.10,VWS V14.01,2013-05-19 12:50:00,
2013-05-19 07:55:00,62.9,59.9,29.67,SE,128,2.0,6.0,90,0.12,,---,0.12,VWS V14.01,2013-05-19 12:55:00,
2013-05-19 08:00:00,63.0,60.0,29.67,East,97,0.0,6.0,90,0.16,,---,0.16,VWS V14.01,2013-05-19 13:00:00,
2013-05-19 08:05:00,62.9,59.9,29.66,ESE,109,0.0,2.0,90,0.17,,---,0.19,VWS V14.01,2013-05-19 13:05:00,
2013-05-19 08:10:00,62.8,59.8,29.66,SSE,162,2.0,4.0,90,0.20,,---,0.22,VWS V14.01,2013-05-19 13:10:00,
2013-05-19 08:15:00,62.8,59.8,29.65,SE,146,0.0,4.0,90,0.22,,---,0.24,VWS V14.01,2013-05-19 13:15:00,
2013-05-19 08:20:00,62.7,59.7,29.64,SE,146,0.0,4.0,90,0.24,,---,0.26,VWS V14.01,2013-05-19 13:20:00,
2013-05-19 08:25:00,62.7,59.7,29.64,SE,144,2.0,4.0,90,0.26,,---,0.28,VWS V14.01,2013-05-19 13:25:00,
2013-05-19 08:30:00,62.6,59.6,29.63,SE,144,0.0,4.0,90,0.28,,---,0.30,VWS V14.01,2013-05-19 13:30:00,
2013-05-19 08:35:00,62.5,59.5,29.61,NE,56,2.0,3.0,90,0.27,,---,0.31,VWS V14.01,2013-05-19 13:35:00,
2013-05-19 08:40:00,62.5,59.5,29.60,NE,56,1.0,3.0,90,0.28,,---,0.32,VWS V14.01,2013-05-19 13:40:00,
2013-05-19 08:45:00,62.6,59.6,29.59,NE,51,0.0,4.0,90,0.28,,---,0.32,VWS V14.01,2013-05-19 13:45:00,
2013-05-19 08:50:00,62.7,60.0,29.58,NE,51,0.0,4.0,91,0.29,,---,0.33,VWS V14.01,2013-05-19 13:50:00,
2013-05-19 08:55:00,62.7,60.0,29.58,NE,51,1.0,4.0,91,0.29,,---,0.33,VWS V14.01,2013-05-19 13:55:00,
2013-05-19 09:00:00,62.7,60.0,29.58,ENE,60,0.0,4.0,91,0.29,,---,0.33,VWS V14.01,2013-05-19 14:00:00,
2013-05-19 09:05:00,62.8,60.1,29.58,ENE,60,1.0,2.0,91,0.17,,---,0.33,VWS V14.01,2013-05-19 14:05:00,
2013-05-19 09:10:00,62.8,60.1,29.58,ENE,61,0.0,2.0,91,0.18,,---,0.34,VWS V14.01,2013-05-19 14:10:00,
2013-05-19 09:15:00,62.8,60.1,29.58,ENE,65,0.0,2.0,91,0.18,,---,0.34,VWS V14.01,2013-05-19 14:15:00,
2013-05-19 09:20:00,62.9,60.2,29.59,ENE,67,0.0,2.0,91,0.18,,---,0.34,VWS V14.01,2013-05-19 14:20:00,
2013-05-19 09:25:00,63.1,60.4,29.59,East,80,0.0,2.0,91,0.18,,---,0.34,VWS V14.01,2013-05-19 14:25:00,
2013-05-19 09:30:00,63.1,60.4,29.59,East,79,0.0,2.0,91,0.18,,---,0.34,VWS V14.01,2013-05-19 14:30:00,
2013-05-19 09:35:00,63.2,60.5,29.59,East,83,0.0,1.0,91,0.04,,---,0.34,VWS V14.01,2013-05-19 14:35:00,
2013-05-19 09:40:00,63.2,60.5,29.59,East,83,0.0,1.0,91,0.04,,---,0.34,VWS V14.01,2013-05-19 14:40:00,
2013-05-19 09:45:00,63.2,60.5,29.60,East,83,0.0,1.0,91,0.04,,---,0.34,VWS V14.01,2013-05-19 14:45:00,
2013-05-19 09:50:00,63.3,60.6,29.64,SE,126,5.0,6.0,91,0.04,,---,0.34,VWS V14.01,2013-05-19 14:50:00,
2013-05-19 09:56:00,63.2,60.5,29.65,SE,136,3.0,12.0,91,0.04,,---,0.34,VWS V14.01,2013-05-19 14:56:00,
2013-05-19 10:00:00,63.2,60.5,29.65,SSE,159,3.0,13.0,91,0.04,,---,0.34,VWS V14.01,2013-05-19 15:00:00,
2013-05-19 10:05:00,63.3,60.3,29.66,SE,140,1.0,15.0,90,0.01,,---,0.34,VWS V14.01,2013-05-19 15:05:00,
2013-05-19 10:10:00,63.4,60.7,29.66,SE,136,0.0,15.0,91,0.01,,---,0.34,VWS V14.01,2013-05-19 15:10:00,
2013-05-19 10:15:00,63.5,60.5,29.65,SSE,167,9.0,15.0,90,0.01,,---,0.34,VWS V14.01,2013-05-19 15:15:00,
2013-05-19 10:20:00,63.7,60.7,29.65,SE,138,3.0,15.0,90,0.01,,---,0.34,VWS V14.01,2013-05-19 15:20:00,
2013-05-19 10:25:00,63.9,60.9,29.65,SE,134,0.0,15.0,90,0.01,,---,0.34,VWS V14.01,2013-05-19 15:25:00,
2013-05-19 10:30:00,64.1,61.1,29.65,SE,128,4.0,15.0,90,0.01,,---,0.34,VWS V14.01,2013-05-19 15:30:00,
2013-05-19 10:31:00,64.1,61.1,29.65,SE,128,3.0,15.0,90,0.01,,---,0.34,VWS V14.01,2013-05-19 15:31:00,
2013-05-19 10:36:00,64.4,61.1,29.65,SE,146,4.0,13.0,89,0.00,,---,0.34,VWS V14.01,2013-05-19 15:36:00,
2013-05-19 10:41:00,64.7,61.4,29.63,SSE,149,1.0,13.0,89,0.00,,---,0.34,VWS V14.01,2013-05-19 15:41:00,
2013-05-19 10:46:00,65.0,61.7,29.63,ESE,115,5.0,13.0,89,0.00,,---,0.34,VWS V14.01,2013-05-19 15:46:00,
2013-05-19 10:51:00,65.3,62.0,29.63,SSE,159,4.0,13.0,89,0.00,,---,0.34,VWS V14.01,2013-05-19 15:51:00,
2013-05-19 10:56:00,65.6,62.0,29.63,SE,126,4.0,13.0,88,0.00,,---,0.34,VWS V14.01,2013-05-19 15:56:00,
2013-05-19 11:00:00,65.8,61.8,29.63,SSE,168,1.0,13.0,87,0.00,,---,0.34,VWS V14.01,2013-05-19 16:00:00,
2013-05-19 11:01:00,65.8,61.8,29.63,SSE,168,1.0,13.0,87,0.00,,---,0.34,VWS V14.01,2013-05-19 16:01:00,
2013-05-19 11:05:00,66.0,62.0,29.63,SSE,160,4.0,10.0,87,0.00,,---,0.34,VWS V14.01,2013-05-19 16:05:00,
2013-05-19 11:10:00,66.1,62.1,29.63,SSE,157,0.0,10.0,87,0.00,,---,0.34,VWS V14.01,2013-05-19 16:10:00,
2013-05-19 11:15:00,66.1,61.8,29.63,ESE,114,0.0,10.0,86,0.00,,---,0.34,VWS V14.01,2013-05-19 16:15:00,
2013-05-19 11:20:00,66.2,61.9,29.61,ESE,115,0.0,10.0,86,0.00,,---,0.34,VWS V14.01,2013-05-19 16:20:00,
2013-05-19 11:25:00,66.2,61.9,29.61,ESE,115,0.0,10.0,86,0.00,,---,0.34,VWS V14.01,2013-05-19 16:25:00,
2013-05-19 11:30:00,66.3,62.0,29.61,ESE,123,0.0,10.0,86,0.00,,---,0.34,VWS V14.01,2013-05-19 16:30:00,
2013-05-19 11:35:00,66.7,62.0,29.61,SE,136,0.0,7.0,85,0.00,,---,0.34,VWS V14.01,2013-05-19 16:35:00,
2013-05-19 11:40:00,67.1,62.5,29.61,WNW,293,0.0,7.0,85,0.00,,---,0.34,VWS V14.01,2013-05-19 16:40:00,
2013-05-19 11:45:00,67.9,63.2,29.60,South,178,0.0,7.0,85,0.00,,---,0.34,VWS V14.01,2013-05-19 16:45:00,
2013-05-19 11:50:00,68.9,63.5,29.60,SE,140,2.0,7.0,83,0.00,,---,0.34,VWS V14.01,2013-05-19 16:50:00,
2013-05-19 11:55:00,69.8,64.1,29.60,SSE,161,0.0,7.0,82,0.00,,---,0.34,VWS V14.01,2013-05-19 16:55:00,
2013-05-19 12:00:00,70.7,64.2,29.60,SE,136,3.0,7.0,80,0.00,,---,0.34,VWS V14.01,2013-05-19 17:00:00,
2013-05-19 12:05:00,71.3,64.5,29.60,SSE,150,0.0,5.0,79,0.00,,---,0.34,VWS V14.01,2013-05-19 17:05:00,
2013-05-19 12:10:00,72.2,65.0,29.60,SSE,155,1.0,5.0,78,0.00,,---,0.34,VWS V14.01,2013-05-19 17:10:00,
2013-05-19 12:15:00,72.8,64.0,29.60,SSE,158,4.0,7.0,74,0.00,,---,0.34,VWS V14.01,2013-05-19 17:15:00,
2013-05-19 12:20:00,73.1,64.7,29.60,SSE,157,4.0,10.0,75,0.00,,---,0.34,VWS V14.01,2013-05-19 17:20:00,
2013-05-19 12:25:00,73.5,64.7,29.60,SE,146,4.0,10.0,74,0.00,,---,0.34,VWS V14.01,2013-05-19 17:25:00,
2013-05-19 12:30:00,73.7,64.1,29.60,SE,130,4.0,10.0,72,0.00,,---,0.34,VWS V14.01,2013-05-19 17:30:00,
2013-05-19 12:35:00,73.5,64.3,29.60,SSE,151,1.0,11.0,73,0.00,,---,0.34,VWS V14.01,2013-05-19 17:35:00,
2013-05-19 12:40:00,73.5,64.7,29.60,SE,124,1.0,11.0,74,0.00,,---,0.34,VWS V14.01,2013-05-19 17:40:00,
2013-05-19 12:45:00,73.1,63.9,29.60,SSE,163,1.0,11.0,73,0.00,,---,0.34,VWS V14.01,2013-05-19 17:45:00,
2013-05-19 12:50:00,73.1,64.3,29.60,SE,146,10.0,11.0,74,0.00,,---,0.34,VWS V14.01,2013-05-19 17:50:00,
2013-05-19 12:55:00,73.3,64.5,29.61,SSE,148,2.0,11.0,74,0.00,,---,0.34,VWS V14.01,2013-05-19 17:55:00,
2013-05-19 13:00:00,73.1,64.3,29.61,South,169,4.0,11.0,74,0.00,,---,0.34,VWS V14.01,2013-05-19 18:00:00,
2013-05-19 13:05:00,73.0,63.8,29.61,SSE,155,3.0,8.0,73,0.00,,---,0.34,VWS V14.01,2013-05-19 18:05:00,
2013-05-19 13:10:00,72.6,63.8,29.61,SSE,160,4.0,14.0,74,0.00,,---,0.34,VWS V14.01,2013-05-19 18:10:00,
2013-05-19 13:15:00,72.3,63.6,29.61,SSE,168,5.0,14.0,74,0.00,,---,0.34,VWS V14.01,2013-05-19 18:15:00,
2013-05-19 13:20:00,72.4,63.7,29.61,South,185,0.0,14.0,74,0.00,,---,0.34,VWS V14.01,2013-05-19 18:20:00,
2013-05-19 13:25:00,73.0,63.5,29.61,South,186,4.0,14.0,72,0.00,,---,0.34,VWS V14.01,2013-05-19 18:25:00,
2013-05-19 13:30:00,73.7,64.9,29.61,South,175,2.0,14.0,74,0.00,,---,0.34,VWS V14.01,2013-05-19 18:30:00,
2013-05-19 13:35:00,74.3,63.9,29.61,SSE,152,3.0,11.0,70,0.00,,---,0.34,VWS V14.01,2013-05-19 18:35:00,
2013-05-19 13:40:00,74.2,63.8,29.61,SE,137,2.0,11.0,70,0.00,,---,0.34,VWS V14.01,2013-05-19 18:40:00,
2013-05-19 13:45:00,74.1,63.3,29.61,South,190,6.0,11.0,69,0.00,,---,0.34,VWS V14.01,2013-05-19 18:45:00,
2013-05-19 13:50:00,74.2,64.2,29.61,SSE,164,0.0,11.0,71,0.00,,---,0.34,VWS V14.01,2013-05-19 18:50:00,
2013-05-19 13:55:00,74.5,64.5,29.60,SSW,204,2.0,11.0,71,0.00,,---,0.34,VWS V14.01,2013-05-19 18:55:00,
2013-05-19 14:00:00,74.7,63.9,29.60,SSW,211,3.0,11.0,69,0.00,,---,0.34,VWS V14.01,2013-05-19 19:00:00,
2013-05-19 14:05:00,75.0,65.0,29.59,SE,137,4.0,10.0,71,0.00,,---,0.34,VWS V14.01,2013-05-19 19:05:00,
2013-05-19 14:10:00,75.2,63.9,29.59,SSE,168,0.0,11.0,68,0.00,,---,0.34,VWS V14.01,2013-05-19 19:10:00,
2013-05-19 14:15:00,75.9,65.0,29.59,South,186,0.0,11.0,69,0.00,,---,0.34,VWS V14.01,2013-05-19 19:15:00,
2013-05-19 14:20:00,76.5,64.3,29.59,SE,128,3.0,13.0,66,0.00,,---,0.34,VWS V14.01,2013-05-19 19:20:00,
2013-05-19 14:25:00,76.2,64.0,29.59,South,182,5.0,13.0,66,0.00,,---,0.34,VWS V14.01,2013-05-19 19:25:00,
2013-05-19 14:30:00,76.0,64.3,29.58,SE,145,2.0,13.0,67,0.00,,---,0.34,VWS V14.01,2013-05-19 19:30:00,
2013-05-19 14:35:00,76.5,64.3,29.58,SSE,165,0.0,9.0,66,0.00,,---,0.34,VWS V14.01,2013-05-19 19:35:00,
2013-05-19 14:40:00,77.0,63.9,29.58,SE,140,4.0,9.0,64,0.00,,---,0.34,VWS V14.01,2013-05-19 19:40:00,
2013-05-19 14:45:00,77.2,64.1,29.58,SE,138,4.0,9.0,64,0.00,,---,0.34,VWS V14.01,2013-05-19 19:45:00,
2013-05-19 14:50:00,77.0,64.3,29.58,SE,128,1.0,9.0,65,0.00,,---,0.34,VWS V14.01,2013-05-19 19:50:00,
2013-05-19 14:55:00,77.2,64.5,29.58,SE,144,6.0,9.0,65,0.00,,---,0.34,VWS V14.01,2013-05-19 19:55:00,
2013-05-19 15:00:00,77.4,64.3,29.58,SSE,156,2.0,11.0,64,0.00,,---,0.34,VWS V14.01,2013-05-19 20:00:00,
2013-05-19 15:05:00,77.3,65.1,29.58,South,178,2.0,6.0,66,0.00,,---,0.34,VWS V14.01,2013-05-19 20:05:00,
2013-05-19 15:10:00,77.1,64.4,29.58,SE,137,2.0,6.0,65,0.00,,---,0.34,VWS V14.01,2013-05-19 20:10:00,
2013-05-19 15:15:00,76.8,63.7,29.58,SE,144,3.0,6.0,64,0.00,,---,0.34,VWS V14.01,2013-05-19 20:15:00,
2013-05-19 15:20:00,76.5,63.9,29.58,SE,139,1.0,6.0,65,0.00,,---,0.34,VWS V14.01,2013-05-19 20:20:00,
2013-05-19 15:25:00,76.3,64.1,29.58,SE,132,1.0,10.0,66,0.00,,---,0.34,VWS V14.01,2013-05-19 20:25:00,
2013-05-19 15:30:00,76.0,64.3,29.58,East,101,0.0,10.0,67,0.00,,---,0.34,VWS V14.01,2013-05-19 20:30:00,
2013-05-19 15:35:00,76.1,64.4,29.58,SSE,155,2.0,3.0,67,0.00,,---,0.34,VWS V14.01,2013-05-19 20:35:00,
2013-05-19 15:40:00,76.3,64.6,29.58,SE,126,2.0,5.0,67,0.00,,---,0.34,VWS V14.01,2013-05-19 20:40:00,
2013-05-19 15:45:00,76.7,64.9,29.58,SE,141,0.0,5.0,67,0.00,,---,0.34,VWS V14.01,2013-05-19 20:45:00,
2013-05-19 15:50:00,77.1,65.3,29.57,SSE,155,0.0,5.0,67,0.00,,---,0.34,VWS V14.01,2013-05-19 20:50:00,
2013-05-19 15:55:00,77.6,65.8,29.57,SE,135,1.0,5.0,67,0.00,,---,0.34,VWS V14.01,2013-05-19 20:55:00,
2013-05-19 16:00:00,78.5,65.3,29.57,SSE,155,0.0,5.0,64,0.00,,---,0.34,VWS V14.01,2013-05-19 21:00:00,
2013-05-19 16:05:00,78.7,66.0,29.56,ESE,106,1.0,3.0,65,0.00,,---,0.34,VWS V14.01,2013-05-19 21:05:00,
2013-05-19 16:10:00,78.7,65.1,29.56,SSE,155,3.0,5.0,63,0.00,,---,0.34,VWS V14.01,2013-05-19 21:10:00,
2013-05-19 16:15:00,78.7,66.0,29.56,SSE,150,0.0,5.0,65,0.00,,---,0.34,VWS V14.01,2013-05-19 21:15:00,
2013-05-19 16:20:00,78.7,64.6,29.56,SSE,155,2.0,5.0,62,0.00,,---,0.34,VWS V14.01,2013-05-19 21:20:00,
2013-05-19 16:25:00,78.6,65.0,29.55,SE,144,0.0,5.0,63,0.00,,---,0.34,VWS V14.01,2013-05-19 21:25:00,
2013-05-19 16:30:00,78.5,66.2,29.55,SE,144,1.0,5.0,66,0.00,,---,0.34,VWS V14.01,2013-05-19 21:30:00,
2013-05-19 16:35:00,78.5,66.2,29.55,South,172,0.0,6.0,66,0.00,,---,0.34,VWS V14.01,2013-05-19 21:35:00,
2013-05-19 16:40:00,78.5,64.9,29.55,SE,144,2.0,6.0,63,0.00,,---,0.34,VWS V14.01,2013-05-19 21:40:00,
2013-05-19 16:45:00,78.0,64.8,29.54,SSE,150,3.0,6.0,64,0.00,,---,0.34,VWS V14.01,2013-05-19 21:45:00,
2013-05-19 16:50:00,77.8,64.7,29.54,SE,133,0.0,6.0,64,0.00,,---,0.34,VWS V14.01,2013-05-19 21:50:00,
2013-05-19 16:55:00,77.8,65.1,29.55,SSE,156,0.0,6.0,65,0.00,,---,0.34,VWS V14.01,2013-05-19 21:55:00,
2013-05-19 17:00:00,77.4,64.7,29.55,SW,215,0.0,9.0,65,0.00,,---,0.34,VWS V14.01,2013-05-19 22:00:00,
2013-05-19 17:05:00,77.2,65.0,29.55,SSE,161,3.0,3.0,66,0.00,,---,0.34,VWS V14.01,2013-05-19 22:05:00,
2013-05-19 17:10:00,76.9,62.9,29.55,SE,129,2.0,9.0,62,0.00,,---,0.34,VWS V14.01,2013-05-19 22:10:00,
2013-05-19 17:15:00,76.7,63.6,29.55,SSE,156,1.0,9.0,64,0.00,,---,0.34,VWS V14.01,2013-05-19 22:15:00,
2013-05-19 17:20:00,76.8,64.2,29.55,South,190,1.0,9.0,65,0.00,,---,0.34,VWS V14.01,2013-05-19 22:20:00,
2013-05-19 17:25:00,76.7,63.6,29.55,SSE,149,0.0,9.0,64,0.00,,---,0.34,VWS V14.01,2013-05-19 22:25:00,
2013-05-19 17:30:00,76.2,62.7,29.55,SW,218,0.0,9.0,63,0.00,,---,0.34,VWS V14.01,2013-05-19 22:30:00,
2013-05-19 17:35:00,74.9,62.3,29.55,WSW,242,0.0,5.0,65,0.00,,---,0.34,VWS V14.01,2013-05-19 22:35:00,
2013-05-19 17:40:00,74.0,61.5,29.56,WNW,289,2.0,5.0,65,0.00,,---,0.34,VWS V14.01,2013-05-19 22:40:00,
2013-05-19 17:45:00,73.4,62.2,29.55,WNW,289,0.0,5.0,68,0.00,,---,0.34,VWS V14.01,2013-05-19 22:45:00,
2013-05-19 17:50:00,73.1,60.7,29.55,WNW,288,0.0,5.0,65,0.00,,---,0.34,VWS V14.01,2013-05-19 22:50:00,
2013-05-19 17:55:00,72.8,60.4,29.55,WNW,289,0.0,5.0,65,0.00,,---,0.34,VWS V14.01,2013-05-19 22:55:00,
2013-05-19 18:00:00,72.7,60.7,29.56,WNW,288,0.0,5.0,66,0.00,,---,0.34,VWS V14.01,2013-05-19 23:00:00,
2013-05-19 18:05:00,72.4,60.4,29.56,WNW,289,0.0,1.0,66,0.00,,---,0.34,VWS V14.01,2013-05-19 23:05:00,
2013-05-19 18:10:00,72.0,60.5,29.55,WNW,288,0.0,1.0,67,0.00,,---,0.34,VWS V14.01,2013-05-19 23:10:00,
2013-05-19 18:15:00,71.8,61.1,29.55,WNW,289,0.0,1.0,69,0.00,,---,0.34,VWS V14.01,2013-05-19 23:15:00,
2013-05-19 18:20:00,71.5,61.6,29.55,WNW,288,0.0,1.0,71,0.00,,---,0.34,VWS V14.01,2013-05-19 23:20:00,
2013-05-19 18:25:00,71.4,62.3,29.55,WNW,289,0.0,1.0,73,0.00,,---,0.34,VWS V14.01,2013-05-19 23:25:00,
2013-05-19 18:30:00,71.3,63.0,29.55,WNW,289,0.0,1.0,75,0.00,,---,0.34,VWS V14.01,2013-05-19 23:30:00,
2013-05-19 18:35:00,71.0,63.1,29.55,WNW,289,0.0,1.0,76,0.00,,---,0.34,VWS V14.01,2013-05-19 23:35:00,
2013-05-19 18:40:00,70.6,62.7,29.54,NNE,23,1.0,3.0,76,0.00,,---,0.34,VWS V14.01,2013-05-19 23:40:00,
2013-05-19 18:45:00,70.1,61.8,29.55,NE,42,2.0,3.0,75,0.00,,---,0.34,VWS V14.01,2013-05-19 23:45:00,
2013-05-19 18:50:00,69.5,61.6,29.54,NE,45,1.0,4.0,76,0.00,,---,0.34,VWS V14.01,2013-05-19 23:50:00,
2013-05-19 18:55:00,68.8,61.7,29.53,NE,45,1.0,4.0,78,0.00,,---,0.34,VWS V14.01,2013-05-19 23:55:00,
2013-05-19 19:00:00,68.0,61.6,29.54,NNE,26,1.0,5.0,80,0.00,,---,0.34,VWS V14.01,2013-05-20 00:00:00,
2013-05-19 19:05:00,67.2,61.2,29.54,NE,49,0.0,3.0,81,0.01,,---,0.35,VWS V14.01,2013-05-20 00:05:00,
2013-05-19 19:10:00,66.5,60.8,29.54,NNE,24,0.0,4.0,82,0.01,,---,0.35,VWS V14.01,2013-05-20 00:10:00,
2013-05-19 19:15:00,66.0,61.0,29.54,NE,48,0.0,4.0,84,0.01,,---,0.35,VWS V14.01,2013-05-20 00:15:00,
2013-05-19 19:20:00,65.5,60.5,29.54,NE,48,0.0,4.0,84,0.01,,---,0.35,VWS V14.01,2013-05-20 00:20:00,
2013-05-19 19:25:00,65.2,60.6,29.54,NE,48,0.0,4.0,85,0.01,,---,0.35,VWS V14.01,2013-05-20 00:25:00,
2013-05-19 19:30:00,64.9,60.3,29.54,NE,48,0.0,4.0,85,0.02,,---,0.36,VWS V14.01,2013-05-20 00:30:00,
2013-05-19 19:35:00,64.6,60.3,29.54,NE,48,0.0,1.0,86,0.02,,---,0.36,VWS V14.01,2013-05-20 00:35:00,
2013-05-19 19:40:00,64.3,60.0,29.54,NE,48,0.0,1.0,86,0.02,,---,0.36,VWS V14.01,2013-05-20 00:40:00,
2013-05-19 19:45:00,64.1,59.8,29.55,NE,48,0.0,1.0,86,0.02,,---,0.36,VWS V14.01,2013-05-20 00:45:00,
2013-05-19 19:50:00,63.9,60.0,29.56,NE,48,0.0,1.0,87,0.03,,---,0.37,VWS V14.01,2013-05-20 00:50:00,
2013-05-19 19:55:00,63.7,59.8,29.56,NE,48,0.0,1.0,87,0.03,,---,0.37,VWS V14.01,2013-05-20 00:55:00,
2013-05-19 20:00:00,63.5,59.6,29.57,NE,48,1.0,1.0,87,0.06,,---,0.40,VWS V14.01,2013-05-20 01:00:00,
2013-05-19 20:05:00,63.2,59.3,29.57,East,99,0.0,3.0,87,0.21,,---,0.55,VWS V14.01,2013-05-20 01:05:00,
2013-05-19 20:10:00,62.8,59.2,29.57,ENE,61,0.0,3.0,88,0.42,,---,0.76,VWS V14.01,2013-05-20 01:10:00,
2013-05-19 20:15:00,62.4,58.8,29.57,ENE,60,1.0,3.0,88,0.57,,---,0.91,VWS V14.01,2013-05-20 01:15:00,
2013-05-19 20:20:00,62.1,58.5,29.57,ENE,59,1.0,3.0,88,0.75,,---,1.09,VWS V14.01,2013-05-20 01:20:00,
2013-05-19 20:25:00,61.8,58.2,29.57,ENE,59,0.0,3.0,88,0.84,,---,1.18,VWS V14.01,2013-05-20 01:25:00,
2013-05-19 20:30:00,61.6,58.3,29.57,ENE,59,0.0,3.0,89,0.90,,---,1.24,VWS V14.01,2013-05-20 01:30:00,
2013-05-19 20:35:00,61.3,58.0,29.56,ENE,59,2.0,2.0,89,0.92,,---,1.28,VWS V14.01,2013-05-20 01:35:00,
2013-05-19 20:40:00,60.9,57.6,29.56,ENE,59,0.0,2.0,89,0.94,,---,1.30,VWS V14.01,2013-05-20 01:40:00,
2013-05-19 20:45:00,60.7,57.4,29.56,ENE,59,0.0,2.0,89,0.95,,---,1.31,VWS V14.01,2013-05-20 01:45:00,
2013-05-19 20:50:00,60.6,57.3,29.56,ENE,59,0.0,2.0,89,0.97,,---,1.33,VWS V14.01,2013-05-20 01:50:00,
2013-05-19 20:55:00,60.4,57.2,29.55,ENE,59,0.0,2.0,89,0.98,,---,1.34,VWS V14.01,2013-05-20 01:55:00,
2013-05-19 21:00:00,60.0,56.8,29.55,NE,49,0.0,3.0,89,0.99,,---,1.35,VWS V14.01,2013-05-20 02:00:00,
2013-05-19 21:05:00,59.7,56.5,29.55,NE,49,1.0,2.0,89,0.95,,---,1.35,VWS V14.01,2013-05-20 02:05:00,
2013-05-19 21:10:00,59.3,56.1,29.55,NE,49,0.0,2.0,89,0.95,,---,1.35,VWS V14.01,2013-05-20 02:10:00,
2013-05-19 21:15:00,59.0,55.8,29.54,NE,49,2.0,3.0,89,0.95,,---,1.35,VWS V14.01,2013-05-20 02:15:00,
2013-05-19 21:20:00,58.8,55.6,29.54,NE,49,2.0,3.0,89,0.95,,---,1.35,VWS V14.01,2013-05-20 02:20:00,
2013-05-19 21:25:00,58.4,55.2,29.54,NE,49,0.0,4.0,89,0.95,,---,1.35,VWS V14.01,2013-05-20 02:25:00,
2013-05-19 21:30:00,58.3,55.4,29.55,NE,49,0.0,4.0,90,0.95,,---,1.35,VWS V14.01,2013-05-20 02:30:00,
2013-05-19 21:35:00,58.0,54.8,29.55,NE,49,0.0,2.0,89,0.10,,---,1.35,VWS V14.01,2013-05-20 02:35:00,
2013-05-19 21:40:00,57.7,54.5,29.56,NE,49,0.0,2.0,89,0.10,,---,1.35,VWS V14.01,2013-05-20 02:40:00,
2013-05-19 21:45:00,57.5,54.3,29.57,NE,49,0.0,2.0,89,0.10,,---,1.35,VWS V14.01,2013-05-20 02:45:00,
2013-05-19 21:50:00,57.1,53.9,29.57,NE,49,0.0,2.0,89,0.10,,---,1.35,VWS V14.01,2013-05-20 02:50:00,
2013-05-19 21:55:00,56.8,53.6,29.56,NE,49,2.0,4.0,89,0.10,,---,1.35,VWS V14.01,2013-05-20 02:55:00,
2013-05-19 22:00:00,56.3,53.1,29.57,NE,49,0.0,4.0,89,0.10,,---,1.35,VWS V14.01,2013-05-20 03:00:00,
2013-05-19 22:05:00,56.0,52.8,29.57,NE,49,0.0,2.0,89,0.00,,---,1.35,VWS V14.01,2013-05-20 03:05:00,
2013-05-19 22:10:00,55.8,52.6,29.57,NE,49,1.0,3.0,89,0.00,,---,1.35,VWS V14.01,2013-05-20 03:10:00,
2013-05-19 22:15:00,55.4,53.1,29.56,NE,42,0.0,3.0,92,0.00,,---,1.35,VWS V14.01,2013-05-20 03:15:00,
2013-05-19 22:20:00,55.1,52.2,29.56,NE,44,0.0,3.0,90,0.00,,---,1.35,VWS V14.01,2013-05-20 03:20:00,
2013-05-19 22:25:00,55.0,52.1,29.56,NE,44,0.0,3.0,90,0.00,,---,1.35,VWS V14.01,2013-05-20 03:25:00,
2013-05-19 22:30:00,54.9,52.0,29.56,NE,38,0.0,4.0,90,0.01,,---,1.36,VWS V14.01,2013-05-20 03:30:00,
2013-05-19 22:35:00,54.6,51.4,29.56,NE,42,0.0,3.0,89,0.01,,---,1.36,VWS V14.01,2013-05-20 03:35:00,
2013-05-19 22:40:00,54.5,51.6,29.57,ENE,57,0.0,3.0,90,0.01,,---,1.36,VWS V14.01,2013-05-20 03:40:00,
2013-05-19 22:45:00,54.5,51.6,29.56,North,10,3.0,3.0,90,0.01,,---,1.36,VWS V14.01,2013-05-20 03:45:00,
2013-05-19 22:50:00,54.2,51.3,29.56,NE,42,0.0,3.0,90,0.01,,---,1.36,VWS V14.01,2013-05-20 03:50:00,
2013-05-19 22:55:00,54.0,51.1,29.56,NE,36,0.0,3.0,90,0.01,,---,1.36,VWS V14.01,2013-05-20 03:55:00,
2013-05-19 23:00:00,53.9,51.0,29.55,NE,36,0.0,3.0,90,0.01,,---,1.36,VWS V14.01,2013-05-20 04:00:00,
2013-05-19 23:01:00,53.9,51.0,29.55,NE,36,1.0,3.0,90,0.01,,---,1.36,VWS V14.01,2013-05-20 04:01:00,
2013-05-19 23:06:00,53.7,50.8,29.54,NE,46,0.0,4.0,90,0.01,,---,1.36,VWS V14.01,2013-05-20 04:06:00,
2013-05-19 23:11:00,53.5,50.6,29.54,NE,46,0.0,4.0,90,0.01,,---,1.36,VWS V14.01,2013-05-20 04:11:00,
2013-05-19 23:16:00,53.5,50.6,29.54,NE,46,0.0,4.0,90,0.01,,---,1.36,VWS V14.01,2013-05-20 04:16:00,
2013-05-19 23:21:00,53.5,50.6,29.54,NE,46,0.0,4.0,90,0.01,,---,1.36,VWS V14.01,2013-05-20 04:21:00,
2013-05-19 23:26:00,53.1,50.2,29.54,ENE,59,0.0,4.0,90,0.01,,---,1.36,VWS V14.01,2013-05-20 04:26:00,
2013-05-19 23:30:00,53.0,50.2,29.53,ENE,59,2.0,7.0,90,0.01,,---,1.36,VWS V14.01,2013-05-20 04:30:00,
2013-05-19 23:31:00,53.0,50.2,29.53,ENE,59,2.0,7.0,90,0.01,,---,1.36,VWS V14.01,2013-05-20 04:31:00,
2013-05-19 23:36:00,52.8,50.0,29.53,NE,50,0.0,3.0,90,0.00,,---,1.36,VWS V14.01,2013-05-20 04:36:00,
2013-05-19 23:41:00,52.8,50.0,29.53,NE,50,0.0,3.0,90,0.00,,---,1.36,VWS V14.01,2013-05-20 04:41:00,
2013-05-19 23:46:00,52.8,50.0,29.53,NE,51,2.0,3.0,90,0.00,,---,1.36,VWS V14.01,2013-05-20 04:46:00,
2013-05-19 23:51:00,52.7,49.8,29.53,NE,52,0.0,3.0,90,0.00,,---,1.36,VWS V14.01,2013-05-20 04:51:00,
2013-05-19 23:56:00,52.7,49.8,29.54,NE,51,2.0,3.0,90,0.00,,---,1.36,VWS V14.01,2013-05-20 04:56:00,